Terminal Aerodrome Forecast
Issued by NWS Cleveland, OH

Home | Current Version | Previous Version | Graphics & Text | Print | Product List | Glossary Off
Versions: 1 2 3 4 5 6 7 8 9 10 11 12 13 14 15 16 17 18 19 20 21 22 23 24 25 26 27 28 29 30 31

000
FTUS41 KCLE 120907 AAC
TAFCLE
TAF AMD
KCLE 120907Z 1209/1312 30014G22KT 1 1/2SM -SN OVC004
      TEMPO 1209/1212 3SM -SN OVC012
     FM121200 30020G30KT 3SM -SHSN OVC015
     FM121400 30022G32KT 6SM -SHSN OVC020=

USA.gov is the U.S. government's official web portal to all federal, state and local government web resources and services.